createdAt,value
2022-12-19T00:00:51.061Z,963.4813232
2022-12-19T00:01:51.700Z,963.399292
2022-12-19T00:02:52.351Z,963.4299927
2022-12-19T00:03:52.656Z,963.4092407
2022-12-19T00:04:53.171Z,963.3764038
2022-12-19T00:05:53.776Z,963.3918457
2022-12-19T00:06:54.332Z,963.362915
2022-12-19T00:07:55.675Z,963.3551025
2022-12-19T00:08:57.057Z,963.3555298
2022-12-19T00:09:57.941Z,963.359375
2022-12-19T00:10:58.535Z,963.3226318
2022-12-19T00:11:59.803Z,963.3521729
2022-12-19T00:13:31.215Z,963.3082886
2022-12-19T00:14:31.124Z,963.3052979
2022-12-19T00:15:31.619Z,963.321228
2022-12-19T00:16:32.180Z,963.3328247
2022-12-19T00:17:32.712Z,963.3117676
2022-12-19T00:18:34.062Z,963.2698975
2022-12-19T00:19:34.597Z,963.2921143
2022-12-19T00:20:35.105Z,963.244873
2022-12-19T00:21:35.736Z,963.246582
2022-12-19T00:22:37.309Z,963.2228394
2022-12-19T00:23:37.949Z,963.2995605
2022-12-19T00:24:38.373Z,963.2979736
2022-12-19T00:25:39.660Z,963.3387451
2022-12-19T00:26:39.398Z,963.3153076
2022-12-19T00:27:40.141Z,963.2611084
2022-12-19T00:28:41.626Z,963.2840576
2022-12-19T00:29:42.236Z,963.2849731
2022-12-19T00:30:42.715Z,963.2446899
2022-12-19T00:31:43.369Z,963.2427979
2022-12-19T00:32:43.784Z,963.1809082
2022-12-19T00:33:44.346Z,963.2034912
2022-12-19T00:34:45.002Z,963.2542114
2022-12-19T00:35:45.529Z,963.2592163
2022-12-19T00:36:46.143Z,963.2537231
2022-12-19T00:37:49.191Z,963.2515869
2022-12-19T00:38:48.127Z,963.263855
2022-12-19T00:39:48.782Z,963.3016968
2022-12-19T00:40:49.334Z,963.3326416
2022-12-19T00:41:49.863Z,963.3417358
2022-12-19T00:42:53.527Z,963.3900146
2022-12-19T00:43:50.953Z,963.3679199
2022-12-19T00:44:51.561Z,963.4124756
2022-12-19T00:45:52.886Z,963.421875
2022-12-19T00:46:53.489Z,963.4605713
2022-12-19T00:47:54.782Z,963.4995117
2022-12-19T00:48:55.291Z,963.4827271
2022-12-19T00:49:55.979Z,963.4832764
2022-12-19T00:50:56.519Z,963.447998
2022-12-19T00:51:57.175Z,963.4396973
2022-12-19T00:52:57.894Z,963.3851318
2022-12-19T00:53:58.482Z,963.3294678
2022-12-19T00:54:59.494Z,963.3873291
2022-12-19T00:56:30.398Z,963.4054565
2022-12-19T00:57:31.103Z,963.3852539
2022-12-19T00:58:35.445Z,963.2746582
2022-12-19T00:59:33.230Z,963.2943726
2022-12-19T01:00:33.784Z,963.3329468
2022-12-19T01:01:34.577Z,963.3250122
2022-12-19T01:02:35.195Z,963.322876
2022-12-19T01:03:36.604Z,963.2749023
2022-12-19T01:04:41.518Z,963.2421875
2022-12-19T01:05:37.721Z,963.1606445
2022-12-19T01:06:38.268Z,963.133728
2022-12-19T01:07:38.923Z,963.1574707
2022-12-19T01:08:40.081Z,963.1327515
2022-12-19T01:09:40.793Z,963.0990601
2022-12-19T01:10:41.322Z,963.1582642
2022-12-19T01:11:41.958Z,963.1615601
2022-12-19T01:12:43.220Z,963.1263428
2022-12-19T01:13:43.754Z,963.1375122
2022-12-19T01:14:44.427Z,963.1290894
2022-12-19T01:15:44.939Z,963.0616455
2022-12-19T01:16:45.448Z,963.0315552
2022-12-19T01:17:46.024Z,963.0742188
2022-12-19T01:18:47.153Z,963.100647
2022-12-19T01:19:47.832Z,963.0926514
2022-12-19T01:20:48.388Z,963.0587769
2022-12-19T01:21:48.917Z,963.0570068
2022-12-19T01:22:49.491Z,963.0714111
2022-12-19T01:23:49.998Z,963.0484619
2022-12-19T01:24:50.613Z,963.0522461
2022-12-19T01:25:51.162Z,963.0167847
2022-12-19T01:26:51.866Z,963.0357666
2022-12-19T01:27:52.492Z,963.0184326
2022-12-19T01:28:53.622Z,963.0328979
2022-12-19T01:29:54.229Z,963.0184326
2022-12-19T01:30:54.798Z,963.0323486
2022-12-19T01:31:55.538Z,962.9830322
2022-12-19T01:32:55.998Z,963.0217285
2022-12-19T01:33:56.581Z,963.0567017
2022-12-19T01:34:57.110Z,963.0681763
2022-12-19T01:35:58.769Z,963.0669556
2022-12-19T01:37:29.836Z,963.1013794
2022-12-19T01:38:31.320Z,963.1560669
2022-12-19T01:39:31.962Z,963.2042236
2022-12-19T01:40:32.468Z,963.2090454
2022-12-19T01:41:33.035Z,963.2443237
2022-12-19T01:42:33.692Z,963.2112427
2022-12-19T01:43:34.245Z,963.1643677
2022-12-19T01:44:34.944Z,963.1265869
2022-12-19T01:45:37.469Z,963.0879517
2022-12-19T01:46:36.120Z,963.0962524
2022-12-19T01:47:37.653Z,963.0906372
2022-12-19T01:48:38.325Z,963.0996704
2022-12-19T01:49:38.932Z,963.114624
2022-12-19T01:50:41.427Z,963.1314697
2022-12-19T01:51:40.647Z,963.1464233
2022-12-19T01:52:41.168Z,963.1829834
2022-12-19T01:53:48.406Z,963.1781006
2022-12-19T01:54:42.557Z,963.1349487
2022-12-19T01:55:43.141Z,963.0666504
2022-12-19T01:56:43.614Z,963.0592041
2022-12-19T01:57:44.143Z,962.9989014
2022-12-19T01:58:45.760Z,963.0200195
2022-12-19T01:59:46.351Z,963.0290527
2022-12-19T02:00:47.123Z,963.0126343
2022-12-19T02:01:51.849Z,963.0353394
2022-12-19T02:02:48.314Z,963.0032959
2022-12-19T02:03:48.690Z,962.963623
2022-12-19T02:04:49.818Z,962.9793701
2022-12-19T02:05:50.452Z,962.9838867
2022-12-19T02:06:50.986Z,963.0744019
2022-12-19T02:07:51.576Z,963.0198364
2022-12-19T02:08:53.019Z,963.0148315
2022-12-19T02:09:57.288Z,963.0386963
2022-12-19T02:10:55.015Z,963.0309448
2022-12-19T02:11:55.530Z,963.1196289
2022-12-19T02:12:56.183Z,963.0734253
2022-12-19T02:13:56.697Z,963.0662231
2022-12-19T02:15:00.536Z,963.1263428
2022-12-19T02:16:29.014Z,963.1634521
2022-12-19T02:17:30.049Z,963.1207275
2022-12-19T02:18:31.330Z,963.0926514
2022-12-19T02:19:31.842Z,963.1137695
2022-12-19T02:20:32.437Z,963.1074219
2022-12-19T02:21:33.025Z,963.0946045
2022-12-19T02:22:33.604Z,963.138916
2022-12-19T02:23:34.227Z,963.1237793
2022-12-19T02:24:34.829Z,963.1309204
2022-12-19T02:25:35.280Z,963.1663818
2022-12-19T02:26:35.920Z,963.149292
2022-12-19T02:27:40.145Z,963.1567993
2022-12-19T02:28:37.884Z,963.102356
2022-12-19T02:29:38.489Z,963.085022
2022-12-19T02:30:38.996Z,963.0933838
2022-12-19T02:31:39.559Z,963.0379028
2022-12-19T02:32:40.017Z,963.0322876
2022-12-19T02:33:40.709Z,963.0197144
2022-12-19T02:34:44.369Z,963.0401611
2022-12-19T02:35:41.831Z,962.9790649
2022-12-19T02:36:44.423Z,962.9440918
2022-12-19T02:37:43.695Z,962.9638062
2022-12-19T02:38:44.855Z,962.9888916
2022-12-19T02:39:45.481Z,962.9363403
2022-12-19T02:40:46.008Z,962.9742432
2022-12-19T02:41:46.682Z,963.0164185
2022-12-19T02:42:47.156Z,962.9742432
2022-12-19T02:43:49.052Z,963.0094604
2022-12-19T02:44:48.307Z,962.9283447
2022-12-19T02:45:48.996Z,962.9411011
2022-12-19T02:46:49.557Z,962.9621582
2022-12-19T02:47:50.055Z,962.9504395
2022-12-19T02:48:51.331Z,962.913147
2022-12-19T02:49:52.025Z,962.9195557
2022-12-19T02:50:52.378Z,962.9221802
2022-12-19T02:51:53.091Z,962.8590088
2022-12-19T02:52:53.651Z,962.875
2022-12-19T02:53:54.185Z,962.8756104
2022-12-19T02:54:54.747Z,962.8737793
2022-12-19T02:55:55.266Z,962.9023438
2022-12-19T02:56:56.734Z,962.8641968
2022-12-19T02:57:57.524Z,962.9359131
2022-12-19T02:59:29.160Z,962.9364014
2022-12-19T03:00:29.636Z,962.9564209
2022-12-19T03:01:30.314Z,963.0036011
2022-12-19T03:02:30.874Z,962.9681396
2022-12-19T03:03:31.285Z,963.024353
2022-12-19T03:04:31.911Z,962.9806519
2022-12-19T03:05:32.468Z,962.9611816
2022-12-19T03:06:33.034Z,962.9506836
2022-12-19T03:07:33.611Z,962.9606323
2022-12-19T03:08:35.122Z,962.9638062
2022-12-19T03:09:36.724Z,962.9328613
2022-12-19T03:10:37.273Z,962.9296875
2022-12-19T03:11:37.850Z,962.9692383
2022-12-19T03:12:38.412Z,962.9379883
2022-12-19T03:13:38.896Z,962.9311523
2022-12-19T03:14:39.566Z,962.9679565
2022-12-19T03:15:40.118Z,962.9661865
2022-12-19T03:16:41.746Z,962.9741211
2022-12-19T03:17:42.295Z,962.9492798
2022-12-19T03:18:42.870Z,962.9477539
2022-12-19T03:19:44.096Z,962.9179077
2022-12-19T03:20:44.646Z,962.8474731
2022-12-19T03:21:45.260Z,962.895752
2022-12-19T03:22:45.853Z,962.921875
2022-12-19T03:23:46.295Z,962.9176636
2022-12-19T03:24:46.912Z,962.9112549
2022-12-19T03:25:47.412Z,962.9107666
2022-12-19T03:26:48.088Z,962.9763794
2022-12-19T03:27:48.690Z,963.0126343
2022-12-19T03:28:49.798Z,962.9422607
2022-12-19T03:29:50.399Z,962.9458008
2022-12-19T03:30:51.882Z,962.9568481
2022-12-19T03:31:52.388Z,962.975647
2022-12-19T03:32:53.045Z,962.9390869
2022-12-19T03:33:53.591Z,962.9025879
2022-12-19T03:34:54.219Z,962.9117432
2022-12-19T03:35:54.734Z,962.8481445
2022-12-19T03:36:55.292Z,962.9151611
2022-12-19T03:37:55.930Z,962.8735962
2022-12-19T03:38:57.673Z,962.9598389
2022-12-19T03:40:28.595Z,962.9528198
2022-12-19T03:41:29.102Z,962.9478149
2022-12-19T03:42:29.677Z,962.9545288
2022-12-19T03:43:30.193Z,962.9559326
2022-12-19T03:44:30.911Z,962.9642334
2022-12-19T03:45:32.309Z,962.9193726
2022-12-19T03:46:32.939Z,962.9657593
2022-12-19T03:47:33.449Z,963.0365601
2022-12-19T03:48:34.012Z,962.9959106
2022-12-19T03:49:35.221Z,963.0058594
2022-12-19T03:50:35.811Z,962.9370117
2022-12-19T03:51:36.403Z,962.8618774
2022-12-19T03:52:36.931Z,962.8687744
2022-12-19T03:53:37.537Z,962.7815552
2022-12-19T03:54:38.067Z,962.7751465
2022-12-19T03:55:38.628Z,962.8105469
2022-12-19T03:56:40.321Z,962.8378296
2022-12-19T03:57:40.878Z,962.8569336
2022-12-19T03:58:41.568Z,962.9257813
2022-12-19T03:59:42.528Z,962.8240356
2022-12-19T04:00:43.077Z,962.8203735
2022-12-19T04:01:43.804Z,962.8153076
2022-12-19T04:02:44.365Z,962.7976685
2022-12-19T04:03:44.998Z,962.7496948
2022-12-19T04:04:45.438Z,962.736084
2022-12-19T04:05:46.064Z,962.7068481
2022-12-19T04:06:46.599Z,962.7008057
2022-12-19T04:07:47.208Z,962.7418823
2022-12-19T04:08:47.823Z,962.645874
2022-12-19T04:09:49.090Z,962.6255493
2022-12-19T04:10:49.676Z,962.5808105
2022-12-19T04:11:50.217Z,962.585022
2022-12-19T04:12:50.724Z,962.6188965
2022-12-19T04:13:51.477Z,962.5912476
2022-12-19T04:14:52.048Z,962.5456543
2022-12-19T04:15:52.778Z,962.5384521
2022-12-19T04:16:53.790Z,962.6096191
2022-12-19T04:17:54.295Z,962.5942383
2022-12-19T04:18:55.007Z,962.6506958
2022-12-19T04:19:56.090Z,962.666748
2022-12-19T04:20:57.470Z,962.6934204
2022-12-19T04:22:28.284Z,962.6968994
2022-12-19T04:23:28.918Z,962.6884155
2022-12-19T04:24:29.453Z,962.7260132
2022-12-19T04:25:30.131Z,962.7606812
2022-12-19T04:26:30.691Z,962.7956543
2022-12-19T04:27:31.309Z,962.7780762
2022-12-19T04:28:31.947Z,962.8233643
2022-12-19T04:29:33.426Z,962.8308716
2022-12-19T04:30:36.705Z,962.8548584
2022-12-19T04:31:34.596Z,962.8027954
2022-12-19T04:32:35.763Z,962.805481
2022-12-19T04:33:36.274Z,962.7654419
2022-12-19T04:34:41.397Z,962.7387695
2022-12-19T04:35:37.412Z,962.7084351
2022-12-19T04:36:37.960Z,962.741272
2022-12-19T04:37:39.226Z,962.7043457
2022-12-19T04:38:39.878Z,962.6472778
2022-12-19T04:39:41.314Z,962.6381836
2022-12-19T04:40:42.018Z,962.6312256
2022-12-19T04:41:42.423Z,962.7156372
2022-12-19T04:42:43.165Z,962.661377
2022-12-19T04:43:43.755Z,962.6213989
2022-12-19T04:44:44.475Z,962.6409302
2022-12-19T04:45:45.013Z,962.6708374
2022-12-19T04:46:46.157Z,962.6300049
2022-12-19T04:47:46.619Z,962.6412354
2022-12-19T04:48:47.245Z,962.6286621
2022-12-19T04:49:48.863Z,962.6903076
2022-12-19T04:50:49.405Z,962.7359619
2022-12-19T04:51:50.028Z,962.6431274
2022-12-19T04:52:55.644Z,962.671875
2022-12-19T04:53:51.155Z,962.6409302
2022-12-19T04:54:51.849Z,962.6381226
2022-12-19T04:55:52.449Z,962.5847168
2022-12-19T04:56:53.032Z,962.5772095
2022-12-19T04:57:54.557Z,962.5602417
2022-12-19T04:58:55.175Z,962.5593872
2022-12-19T04:59:56.410Z,962.6253052
2022-12-19T05:01:27.836Z,962.659668
2022-12-19T05:02:28.451Z,962.6506348
2022-12-19T05:03:28.976Z,962.7078247
2022-12-19T05:04:29.407Z,962.6467285
2022-12-19T05:05:30.027Z,962.6867065
2022-12-19T05:06:30.579Z,962.6534424
2022-12-19T05:07:31.130Z,962.6384277
2022-12-19T05:08:31.755Z,962.6289063
2022-12-19T05:09:32.769Z,962.6347046
2022-12-19T05:10:33.303Z,962.6347046
2022-12-19T05:11:33.852Z,962.5845947
2022-12-19T05:12:34.485Z,962.5665894
2022-12-19T05:13:35.069Z,962.6107788
2022-12-19T05:14:35.614Z,962.5926514
2022-12-19T05:15:36.272Z,962.624939
2022-12-19T05:16:36.684Z,962.6431274
2022-12-19T05:17:37.294Z,962.612793
2022-12-19T05:18:37.902Z,962.6105347
2022-12-19T05:19:39.298Z,962.583252
2022-12-19T05:20:40.042Z,962.618042
2022-12-19T05:21:40.483Z,962.5761108
2022-12-19T05:22:41.056Z,962.5641479
2022-12-19T05:23:41.556Z,962.6004639
2022-12-19T05:24:43.031Z,962.5803223
2022-12-19T05:25:43.715Z,962.6169434
2022-12-19T05:26:44.167Z,962.619873
2022-12-19T05:27:44.762Z,962.6676636
2022-12-19T05:28:45.284Z,962.6417847
2022-12-19T05:29:45.777Z,962.635376
2022-12-19T05:30:51.963Z,962.6116333
2022-12-19T05:31:47.602Z,962.6084595
2022-12-19T05:32:48.090Z,962.6243896
2022-12-19T05:33:48.594Z,962.6049194
2022-12-19T05:34:49.146Z,962.6118774
2022-12-19T05:35:49.707Z,962.5992432
2022-12-19T05:36:50.214Z,962.600647
2022-12-19T05:37:50.823Z,962.6726074
2022-12-19T05:38:51.329Z,962.6362305
2022-12-19T05:39:51.818Z,962.6904907
2022-12-19T05:40:52.424Z,962.6677246
2022-12-19T05:41:53.581Z,962.6818848
2022-12-19T05:42:54.240Z,962.6932983
2022-12-19T05:43:54.747Z,962.6854858
2022-12-19T05:44:55.250Z,962.6813965
2022-12-19T05:45:56.215Z,962.7235718
2022-12-19T05:47:27.916Z,962.6411133
2022-12-19T05:48:28.440Z,962.6727905
2022-12-19T05:49:29.062Z,962.6207886
2022-12-19T05:50:30.535Z,962.5932617
2022-12-19T05:51:31.123Z,962.6298218
2022-12-19T05:52:31.587Z,962.671875
2022-12-19T05:53:32.078Z,962.6713257
2022-12-19T05:54:32.593Z,962.6569824
2022-12-19T05:55:33.082Z,962.6560669
2022-12-19T05:56:33.734Z,962.6571655
2022-12-19T05:57:34.198Z,962.6553345
2022-12-19T05:58:34.793Z,962.6671753
2022-12-19T05:59:35.348Z,962.6637573
2022-12-19T06:00:36.510Z,962.6733398
2022-12-19T06:01:37.361Z,962.6623535
2022-12-19T06:02:37.795Z,962.6317139
2022-12-19T06:03:38.253Z,962.6509399
2022-12-19T06:04:38.715Z,962.6461182
2022-12-19T06:05:39.219Z,962.5961914
2022-12-19T06:06:39.788Z,962.6132202
2022-12-19T06:07:40.284Z,962.6156006
2022-12-19T06:08:40.832Z,962.539856
2022-12-19T06:09:41.326Z,962.5814209
2022-12-19T06:10:42.601Z,962.5582886
2022-12-19T06:11:43.259Z,962.6017456
2022-12-19T06:12:43.702Z,962.5648193
2022-12-19T06:13:44.344Z,962.5285645
2022-12-19T06:14:44.802Z,962.5597534
2022-12-19T06:15:45.382Z,962.5709229
2022-12-19T06:16:46.516Z,962.5441895
2022-12-19T06:17:46.991Z,962.539917
2022-12-19T06:18:47.542Z,962.508728
2022-12-19T06:19:48.033Z,962.5374756
2022-12-19T06:20:49.599Z,962.5167236
2022-12-19T06:21:50.139Z,962.4926758
2022-12-19T06:22:50.713Z,962.501709
2022-12-19T06:23:51.250Z,962.510498
2022-12-19T06:24:51.732Z,962.5293579
2022-12-19T06:25:52.345Z,962.553894
2022-12-19T06:26:52.874Z,962.5352173
2022-12-19T06:27:53.341Z,962.5152588
2022-12-19T06:28:53.878Z,962.5429688
2022-12-19T06:29:54.466Z,962.5541382
2022-12-19T06:31:26.343Z,962.53125
2022-12-19T06:32:26.852Z,962.5042114
2022-12-19T06:33:27.597Z,962.4759521
2022-12-19T06:35:02.150Z,962.5446777
2022-12-19T06:35:28.697Z,962.5479736
2022-12-19T06:36:29.202Z,962.5776367
2022-12-19T06:37:29.828Z,962.5910645
2022-12-19T06:38:30.266Z,962.5700073
2022-12-19T06:39:30.862Z,962.6807251
2022-12-19T06:40:32.020Z,962.7329712
2022-12-19T06:41:33.510Z,962.7553101
2022-12-19T06:42:34.138Z,962.7987671
2022-12-19T06:43:34.576Z,962.7564087
2022-12-19T06:44:35.189Z,962.7217407
2022-12-19T06:45:35.739Z,962.6745605
2022-12-19T06:46:36.177Z,962.7075806
2022-12-19T06:47:36.743Z,962.6907959
2022-12-19T06:48:37.775Z,962.6010742
2022-12-19T06:49:38.358Z,962.626709
2022-12-19T06:50:39.766Z,962.6507568
2022-12-19T06:51:40.247Z,962.6130981
2022-12-19T06:52:40.924Z,962.6203003
2022-12-19T06:53:41.464Z,962.5482788
2022-12-19T06:54:42.111Z,962.5153198
2022-12-19T06:55:42.631Z,962.5301514
2022-12-19T06:56:43.113Z,962.5488892
2022-12-19T06:57:44.305Z,962.5010986
2022-12-19T06:58:44.753Z,962.5136108
2022-12-19T06:59:45.363Z,962.5465698
2022-12-19T07:00:45.915Z,962.5767212
2022-12-19T07:01:47.201Z,962.5578003
2022-12-19T07:02:47.767Z,962.4987793
2022-12-19T07:03:48.107Z,962.4629517
2022-12-19T07:04:48.631Z,962.4338989
2022-12-19T07:05:49.114Z,962.479248
2022-12-19T07:06:49.760Z,962.4978638
2022-12-19T07:07:50.266Z,962.5246582
2022-12-19T07:08:50.882Z,962.5379639
2022-12-19T07:09:51.393Z,962.510498
2022-12-19T07:10:52.600Z,962.5339355
2022-12-19T07:11:53.096Z,962.5373535
2022-12-19T07:12:53.669Z,962.543457
2022-12-19T07:13:54.269Z,962.5661011
2022-12-19T07:14:55.213Z,962.5562744
2022-12-19T07:16:26.114Z,962.5281372
2022-12-19T07:17:26.599Z,962.5593872
2022-12-19T07:18:27.243Z,962.5665894
2022-12-19T07:19:28.519Z,962.6017456
2022-12-19T07:20:29.800Z,962.5339966
2022-12-19T07:21:30.270Z,962.5670166
2022-12-19T07:22:30.831Z,962.4798584
2022-12-19T07:23:31.439Z,962.4720459
2022-12-19T07:24:31.931Z,962.5480957
2022-12-19T07:25:32.508Z,962.5307007
2022-12-19T07:26:33.007Z,962.529541
2022-12-19T07:27:35.862Z,962.5340576
2022-12-19T07:28:34.517Z,962.5992432
2022-12-19T07:29:35.024Z,962.5170288
2022-12-19T07:30:36.344Z,962.5784302
2022-12-19T07:31:36.968Z,962.5848389
2022-12-19T07:32:37.437Z,962.5789185
2022-12-19T07:33:38.049Z,962.5979004
2022-12-19T07:34:38.586Z,962.5858765
2022-12-19T07:35:39.094Z,962.6184082
2022-12-19T07:36:39.571Z,962.6392212
2022-12-19T07:37:40.101Z,962.6603394
2022-12-19T07:38:40.772Z,962.6486206
2022-12-19T07:39:41.244Z,962.633606
2022-12-19T07:40:42.373Z,962.6654053
2022-12-19T07:41:42.963Z,962.7037354
2022-12-19T07:42:43.456Z,962.694519
2022-12-19T07:43:44.097Z,962.7025146
2022-12-19T07:44:44.639Z,962.734436
2022-12-19T07:45:45.306Z,962.7228394
2022-12-19T07:46:45.665Z,962.7150879
2022-12-19T07:47:46.190Z,962.7598267
2022-12-19T07:48:46.735Z,962.7281494
2022-12-19T07:49:47.218Z,962.7775269
2022-12-19T07:50:48.756Z,962.741394
2022-12-19T07:51:49.239Z,962.7543945
2022-12-19T07:52:49.816Z,962.7318115
2022-12-19T07:53:51.053Z,962.7285767
2022-12-19T07:54:51.499Z,962.7235718
2022-12-19T07:55:52.060Z,962.741272
2022-12-19T07:56:52.581Z,962.7670288
2022-12-19T07:57:53.125Z,962.7913818
2022-12-19T07:58:53.719Z,962.7868652
2022-12-19T07:59:54.661Z,962.7562256
2022-12-19T08:01:28.354Z,962.7837524
2022-12-19T08:02:27.089Z,962.8102417
2022-12-19T08:03:27.924Z,962.7709351
2022-12-19T08:04:28.385Z,962.7709351
2022-12-19T08:05:28.902Z,962.8129883
2022-12-19T08:06:29.448Z,962.7820435
2022-12-19T08:07:29.930Z,962.7993774
2022-12-19T08:08:30.508Z,962.809082
2022-12-19T08:09:30.974Z,962.7828369
2022-12-19T08:10:31.533Z,962.8439331
2022-12-19T08:11:32.015Z,962.8389282
2022-12-19T08:12:32.573Z,962.8920288
2022-12-19T08:13:38.673Z,962.8769531
2022-12-19T08:14:33.715Z,962.9317017
2022-12-19T08:15:34.278Z,962.9266357
2022-12-19T08:16:49.408Z,962.9595337
2022-12-19T08:17:35.478Z,962.9745483
2022-12-19T08:18:35.903Z,962.9740601
2022-12-19T08:19:36.415Z,962.9606323
2022-12-19T08:20:37.025Z,962.9581299
2022-12-19T08:21:38.497Z,962.9551392
2022-12-19T08:22:39.053Z,962.9501343
2022-12-19T08:23:39.584Z,962.9413452
2022-12-19T08:24:40.160Z,962.9039917
2022-12-19T08:25:40.646Z,962.9338989
2022-12-19T08:26:46.032Z,962.9070435
2022-12-19T08:27:41.790Z,962.9112549
2022-12-19T08:28:43.007Z,962.9115601
2022-12-19T08:29:43.529Z,962.9138794
2022-12-19T08:30:44.225Z,962.9182739
2022-12-19T08:31:45.518Z,962.9262695
2022-12-19T08:32:46.112Z,962.9503174
2022-12-19T08:33:46.648Z,962.9395142
2022-12-19T08:34:47.255Z,962.9519043
2022-12-19T08:35:47.743Z,962.9484253
2022-12-19T08:36:48.299Z,962.9671631
2022-12-19T08:37:49.499Z,962.9243774
2022-12-19T08:38:50.025Z,962.8762207
2022-12-19T08:39:50.672Z,962.8759155
2022-12-19T08:40:51.147Z,962.9421997
2022-12-19T08:41:52.610Z,962.9197388
2022-12-19T08:42:53.172Z,962.857666
2022-12-19T08:43:54.173Z,962.8140869
2022-12-19T08:45:24.979Z,962.8311768
2022-12-19T08:46:25.619Z,962.8725586
2022-12-19T08:47:26.147Z,962.845459
2022-12-19T08:48:26.724Z,962.8894043
2022-12-19T08:49:27.356Z,962.8810425
2022-12-19T08:50:27.898Z,962.8741455
2022-12-19T08:51:29.189Z,962.8953247
2022-12-19T08:52:29.608Z,962.8980713
2022-12-19T08:53:30.106Z,962.8943481
2022-12-19T08:54:30.619Z,962.8498535
2022-12-19T08:55:31.224Z,962.8626709
2022-12-19T08:56:32.702Z,962.8613892
2022-12-19T08:57:33.263Z,962.8929443
2022-12-19T08:58:33.938Z,962.8532715
2022-12-19T08:59:34.485Z,962.90271
2022-12-19T09:00:35.052Z,962.8764038
2022-12-19T09:01:36.718Z,962.8255615
2022-12-19T09:02:37.625Z,962.8325806
2022-12-19T09:04:10.008Z,962.8563843
2022-12-19T09:05:57.753Z,962.8406982
2022-12-19T09:06:01.422Z,962.9144287
2022-12-19T09:06:39.742Z,962.8682861
2022-12-19T09:07:41.066Z,962.8931885
2022-12-19T09:08:41.813Z,962.9121704
2022-12-19T09:09:42.377Z,962.8445435
2022-12-19T09:10:42.979Z,962.9101563
2022-12-19T09:11:47.372Z,962.9580688
2022-12-19T09:12:44.612Z,962.9589233
2022-12-19T09:13:45.265Z,962.9453125
2022-12-19T09:14:45.835Z,962.939209
2022-12-19T09:15:46.445Z,962.9504395
2022-12-19T09:16:47.068Z,962.9724121
2022-12-19T09:17:47.548Z,963.0385742
2022-12-19T09:18:48.972Z,963.0232544
2022-12-19T09:19:48.741Z,962.8988037
2022-12-19T09:20:49.282Z,962.9060669
2022-12-19T09:21:50.532Z,962.9395142
2022-12-19T09:22:51.181Z,962.8900757
2022-12-19T09:23:51.811Z,962.9301758
2022-12-19T09:24:52.471Z,962.9398193
2022-12-19T09:25:53.067Z,962.9536133
2022-12-19T09:27:24.038Z,962.9124146
2022-12-19T09:28:27.606Z,962.90448
2022-12-19T09:29:25.330Z,962.8925171
2022-12-19T09:30:26.793Z,962.9424438
2022-12-19T09:31:29.403Z,962.8900146
2022-12-19T09:32:29.809Z,962.9542236
2022-12-19T09:33:30.446Z,962.9263916
2022-12-19T09:34:33.479Z,962.9193115
2022-12-19T09:35:31.699Z,962.9206543
2022-12-19T09:36:32.790Z,962.9450073
2022-12-19T09:37:33.234Z,963.017334
2022-12-19T09:38:34.666Z,963.0045166
2022-12-19T09:39:34.461Z,963.0254517
2022-12-19T09:40:36.316Z,962.9926758
2022-12-19T09:41:37.811Z,962.9993896
2022-12-19T09:42:41.296Z,962.9857788
2022-12-19T09:43:41.456Z,962.96875
2022-12-19T09:44:39.275Z,963
2022-12-19T09:45:40.025Z,962.9623413
2022-12-19T09:46:40.669Z,962.9284668
2022-12-19T09:47:41.092Z,962.9140015
2022-12-19T09:48:41.589Z,962.960022
2022-12-19T09:49:42.205Z,962.9015503
2022-12-19T09:50:42.846Z,962.8502197
2022-12-19T09:51:44.288Z,962.9328003
2022-12-19T09:52:44.862Z,962.904541
2022-12-19T09:53:45.612Z,962.9639282
2022-12-19T09:54:46.646Z,962.9453735
2022-12-19T09:55:47.275Z,962.9876709
2022-12-19T09:56:47.986Z,963.0039673
2022-12-19T09:57:49.174Z,962.9762573
2022-12-19T09:58:49.707Z,962.9759521
2022-12-19T09:59:50.469Z,962.960022
2022-12-19T10:00:55.343Z,962.9553833
2022-12-19T10:01:52.309Z,962.9508667
2022-12-19T10:02:53.660Z,962.8897095
2022-12-19T10:04:24.102Z,962.8931885
2022-12-19T10:05:38.823Z,962.9241943
2022-12-19T10:07:16.373Z,962.8538818
2022-12-19T10:07:49.830Z,962.875
2022-12-19T10:08:27.720Z,962.9103394
2022-12-19T10:12:11.822Z,962.9128418
2022-12-19T10:12:35.371Z,962.9395142
2022-12-19T10:12:40.177Z,962.9335938
2022-12-19T10:12:42.400Z,962.9539795
2022-12-19T10:13:31.491Z,962.958252
2022-12-19T10:14:32.147Z,962.949707
2022-12-19T10:15:32.690Z,962.9331055
2022-12-19T10:16:33.230Z,962.9743652
2022-12-19T10:17:33.790Z,962.9337769
2022-12-19T10:18:34.317Z,963.0168457
2022-12-19T10:19:36.335Z,962.980957
2022-12-19T10:20:36.848Z,963.0064087
2022-12-19T10:22:15.844Z,962.979126
2022-12-19T10:22:38.757Z,962.9447021
2022-12-19T10:23:39.434Z,962.946106
2022-12-19T10:24:40.648Z,962.9334106
2022-12-19T10:25:41.286Z,962.9102173
2022-12-19T10:26:42.503Z,962.864502
2022-12-19T10:27:44.211Z,962.8574829
2022-12-19T10:28:43.727Z,962.8591919
2022-12-19T10:29:44.357Z,962.8557739
2022-12-19T10:30:45.892Z,962.8378296
2022-12-19T10:31:46.327Z,962.8522949
2022-12-19T10:32:47.815Z,962.8254395
2022-12-19T10:33:48.372Z,962.8382568
2022-12-19T10:34:48.846Z,962.8800049
2022-12-19T10:35:49.529Z,962.8442383
2022-12-19T10:37:52.148Z,962.864502
2022-12-19T10:39:23.323Z,962.8311157
2022-12-19T10:40:28.356Z,962.8259888
2022-12-19T10:41:24.428Z,962.8206787
2022-12-19T10:42:25.497Z,962.8083496
2022-12-19T10:43:33.577Z,962.7628784
2022-12-19T10:44:26.697Z,962.7960815
2022-12-19T10:45:27.283Z,962.7473145
2022-12-19T10:46:28.014Z,962.7157593
2022-12-19T10:47:28.531Z,962.6729736
2022-12-19T10:48:30.841Z,962.6596069
2022-12-19T10:49:29.480Z,962.6366577
2022-12-19T10:50:30.708Z,962.5946045
2022-12-19T10:51:31.415Z,962.5726318
2022-12-19T10:52:32.608Z,962.6248169
2022-12-19T10:53:33.096Z,962.5274048
2022-12-19T10:54:33.879Z,962.5378418
2022-12-19T10:55:34.314Z,962.5164185
2022-12-19T10:56:37.977Z,962.5078125
2022-12-19T10:57:36.381Z,962.5562744
2022-12-19T10:58:36.996Z,962.5482178
2022-12-19T10:59:37.518Z,962.4896851
2022-12-19T11:00:38.114Z,962.5449829
2022-12-19T11:01:39.378Z,962.5158081
2022-12-19T11:02:41.424Z,962.5089111
2022-12-19T11:03:42.018Z,962.4978027
2022-12-19T11:04:42.326Z,962.5904541
2022-12-19T11:05:42.934Z,962.5744019
2022-12-19T11:06:43.449Z,962.56073